Time;durP1;ratioP1;P1;durP2;ratioP2;P2;SDS_P1;SDS_P2;PMS_P1;PMS_P2;Temp;Humidity;BMP_temperature;BMP_pressure;BME280_temperature;BME280_humidity;BME280_pressure;Samples;Min_cycle;Max_cycle;Signal;HPM_P1;HPM_P2
2021/01/01 00:01:06;;;;;;;109.40;82.15;;;3.60;1.00;;;;;;4978051;28;20246;-83
2021/01/01 00:03:33;;;;;;;126.40;107.40;;;3.60;1.00;;;;;;4982752;28;20231;-88
2021/01/01 00:08:29;;;;;;;103.55;80.15;;;3.70;1.00;;;;;;4950851;28;20293;-83
2021/01/01 00:10:56;;;;;;;104.10;78.80;;;3.60;1.00;;;;;;4942694;28;20236;-84
2021/01/01 00:13:22;;;;;;;100.25;81.43;;;3.60;1.00;;;;;;4942110;28;20230;-83
2021/01/01 00:15:49;;;;;;;99.85;79.38;;;3.60;1.00;;;;;;4961176;23;20244;-82
2021/01/01 00:18:15;;;;;;;93.50;77.18;;;3.60;1.00;;;;;;4979494;28;20246;-85
2021/01/01 00:20:43;;;;;;;96.90;77.35;;;3.50;1.00;;;;;;4958854;28;20234;-86
2021/01/01 00:23:10;;;;;;;106.53;81.22;;;3.50;1.00;;;;;;4959351;28;20222;-89
2021/01/01 00:25:37;;;;;;;130.48;103.07;;;3.40;1.00;;;;;;4951158;28;20224;-88
2021/01/01 00:28:04;;;;;;;122.93;95.85;;;3.40;1.00;;;;;;4945061;28;20238;-86
2021/01/01 00:30:30;;;;;;;104.20;80.63;;;3.40;1.00;;;;;;4941554;28;20320;-80
2021/01/01 00:32:57;;;;;;;107.43;79.95;;;3.40;1.00;;;;;;4954814;28;20417;-79
2021/01/01 00:35:23;;;;;;;95.88;77.47;;;3.40;1.00;;;;;;4931733;29;20325;-83
2021/01/01 00:37:51;;;;;;;102.85;77.13;;;3.40;1.00;;;;;;4923937;29;20247;-81
2021/01/01 00:40:17;;;;;;;95.57;76.68;;;3.40;1.00;;;;;;4921995;29;20281;-82
2021/01/01 00:42:44;;;;;;;86.25;71.07;;;3.40;1.00;;;;;;4927246;29;20299;-82
2021/01/01 00:45:11;;;;;;;77.00;61.35;;;3.40;1.00;;;;;;4943904;28;20234;-83
2021/01/01 00:47:37;;;;;;;84.60;65.85;;;3.40;1.00;;;;;;4927392;28;20226;-84
2021/01/01 00:50:12;;;;;;;79.10;63.63;;;3.30;1.00;;;;;;4925384;28;20239;-82
2021/01/01 00:52:39;;;;;;;94.07;70.70;;;3.30;1.00;;;;;;4935114;28;20230;-84
2021/01/01 00:55:08;;;;;;;78.60;61.17;;;3.20;1.00;;;;;;4923810;29;20227;-83
2021/01/01 00:57:34;;;;;;;66.35;54.72;;;3.20;1.00;;;;;;4922252;29;20294;-84
2021/01/01 01:00:03;;;;;;;67.00;56.15;;;3.10;1.00;;;;;;4940226;28;20263;-81
2021/01/01 01:02:29;;;;;;;68.78;58.40;;;3.10;1.00;;;;;;4939326;28;20230;-81
2021/01/01 01:04:55;;;;;;;72.80;58.33;;;3.10;1.00;;;;;;4952126;28;21452;-81
2021/01/01 01:07:21;;;;;;;59.97;49.10;;;3.20;1.00;;;;;;4931874;28;20286;-82
2021/01/01 01:09:49;;;;;;;59.40;49.47;;;3.20;1.00;;;;;;4942344;28;20698;-83
2021/01/01 01:12:18;;;;;;;54.63;45.15;;;3.10;1.00;;;;;;4918253;29;20277;-84
2021/01/01 01:14:44;;;;;;;51.85;42.95;;;3.00;1.00;;;;;;4925511;29;20262;-83
2021/01/01 01:17:11;;;;;;;54.80;44.60;;;3.10;1.00;;;;;;4922911;28;20234;-85
2021/01/01 01:19:37;;;;;;;53.95;44.08;;;3.10;1.00;;;;;;4932953;28;20227;-86
2021/01/01 01:22:07;;;;;;;43.78;38.92;;;3.20;1.00;;;;;;4918271;29;20246;-86
2021/01/01 01:24:33;;;;;;;42.00;36.45;;;3.10;1.00;;;;;;4938606;28;20238;-85
2021/01/01 01:27:03;;;;;;;46.42;36.85;;;3.10;1.00;;;;;;4921790;28;20253;-82
2021/01/01 01:29:36;;;;;;;44.53;36.67;;;3.00;1.00;;;;;;4928185;29;20230;-84
2021/01/01 01:32:05;;;;;;;42.80;34.40;;;3.00;1.00;;;;;;4924064;29;20362;-84
2021/01/01 01:34:35;;;;;;;39.22;33.58;;;3.00;1.00;;;;;;4924289;29;20234;-84
2021/01/01 01:37:05;;;;;;;35.97;32.08;;;3.00;1.00;;;;;;4922978;29;20323;-85
2021/01/01 01:39:36;;;;;;;44.30;38.58;;;3.00;1.00;;;;;;4924982;29;20958;-84
2021/01/01 01:42:10;;;;;;;40.00;31.65;;;3.00;1.00;;;;;;4920554;29;20261;-84
2021/01/01 01:44:37;;;;;;;41.58;33.70;;;2.90;1.00;;;;;;4917799;29;20230;-84
2021/01/01 01:47:17;;;;;;;37.00;30.33;;;2.90;1.00;;;;;;4921316;28;20238;-86
2021/01/01 01:49:44;;;;;;;40.53;31.50;;;2.90;1.00;;;;;;4922319;28;20335;-84
2021/01/01 01:52:11;;;;;;;34.05;29.58;;;2.90;1.00;;;;;;4921819;28;20289;-85
2021/01/01 01:54:39;;;;;;;35.92;29.60;;;2.90;1.00;;;;;;4933537;28;20218;-86
2021/01/01 01:57:07;;;;;;;38.25;32.42;;;2.90;1.00;;;;;;4936944;28;20226;-82
2021/01/01 01:59:34;;;;;;;38.72;30.73;;;2.90;1.00;;;;;;4943038;28;20247;-81
2021/01/01 02:02:10;;;;;;;38.35;30.35;;;3.00;1.00;;;;;;4938614;28;20254;-82
2021/01/01 02:04:38;;;;;;;35.30;30.70;;;3.00;1.00;;;;;;4929515;29;20230;-84
2021/01/01 02:07:10;;;;;;;38.22;30.10;;;2.90;1.00;;;;;;4919854;29;20553;-86
2021/01/01 02:09:36;;;;;;;37.03;29.52;;;2.90;1.00;;;;;;4917754;29;20234;-83
2021/01/01 02:12:03;;;;;;;34.40;29.00;;;2.80;1.00;;;;;;4918728;29;20344;-86
2021/01/01 02:14:30;;;;;;;33.85;30.20;;;2.90;1.00;;;;;;4919620;29;20230;-84
2021/01/01 02:16:56;;;;;;;35.40;29.48;;;2.90;1.00;;;;;;4917401;29;20660;-85
2021/01/01 02:19:27;;;;;;;35.20;28.33;;;2.80;1.00;;;;;;4922481;29;20290;-83
2021/01/01 02:21:59;;;;;;;38.65;30.35;;;2.80;1.00;;;;;;4925269;29;20254;-85
2021/01/01 02:24:27;;;;;;;35.38;30.35;;;2.80;1.00;;;;;;4938596;28;20221;-83
2021/01/01 02:26:53;;;;;;;33.95;28.63;;;2.80;1.00;;;;;;4943501;28;20230;-85
2021/01/01 02:29:20;;;;;;;34.30;28.80;;;2.80;1.00;;;;;;4951447;28;20278;-84
2021/01/01 02:31:46;;;;;;;33.63;28.27;;;2.80;1.00;;;;;;4943481;28;20232;-81
2021/01/01 02:34:13;;;;;;;35.88;30.05;;;2.80;1.00;;;;;;4921247;29;20231;-83
2021/01/01 02:36:39;;;;;;;39.45;30.65;;;2.90;1.00;;;;;;4930086;28;21103;-82
2021/01/01 02:39:07;;;;;;;34.83;29.27;;;2.90;1.00;;;;;;4921152;29;20238;-82
2021/01/01 02:41:34;;;;;;;38.70;30.77;;;2.90;1.00;;;;;;4918806;29;20230;-82
2021/01/01 02:44:01;;;;;;;37.20;29.02;;;2.80;1.00;;;;;;4919144;29;21047;-81
2021/01/01 02:46:27;;;;;;;40.80;32.10;;;2.80;1.00;;;;;;4923375;29;20308;-82
2021/01/01 02:48:53;;;;;;;36.45;30.98;;;2.90;1.00;;;;;;4921945;29;20266;-83
2021/01/01 02:51:20;;;;;;;39.47;32.42;;;2.80;1.00;;;;;;4945827;28;20311;-80
2021/01/01 02:56:42;;;;;;;33.30;29.70;;;2.90;1.00;;;;;;4954240;28;20645;-84
2021/01/01 02:59:09;;;;;;;41.28;32.22;;;2.90;1.00;;;;;;4954372;28;20244;-84
2021/01/01 03:01:39;;;;;;;38.97;32.85;;;2.90;1.00;;;;;;4942856;28;20705;-83
2021/01/01 03:04:10;;;;;;;39.22;33.22;;;3.00;1.00;;;;;;4944029;28;20293;-83
2021/01/01 03:06:37;;;;;;;41.90;32.22;;;3.00;1.00;;;;;;4939834;28;20256;-83
2021/01/01 03:09:07;;;;;;;38.80;31.73;;;3.10;1.00;;;;;;4956252;28;20236;-83
2021/01/01 03:11:39;;;;;;;37.03;31.25;;;3.00;1.00;;;;;;4958384;28;20396;-84
2021/01/01 03:14:07;;;;;;;38.35;31.98;;;3.00;1.00;;;;;;4943166;28;20248;-84
2021/01/01 03:16:37;;;;;;;33.65;29.33;;;3.10;1.00;;;;;;4953676;28;20234;-83
2021/01/01 03:19:05;;;;;;;37.10;31.75;;;3.10;1.00;;;;;;4945911;28;20214;-81
2021/01/01 03:21:32;;;;;;;35.97;29.27;;;3.10;1.00;;;;;;4945900;28;20222;-81
2021/01/01 03:23:58;;;;;;;36.22;30.15;;;3.10;1.00;;;;;;4951910;28;20252;-80
2021/01/01 03:26:25;;;;;;;39.10;30.40;;;3.10;1.00;;;;;;4943229;28;20233;-83
2021/01/01 03:28:51;;;;;;;36.30;31.90;;;3.10;1.00;;;;;;4945323;28;20224;-81
2021/01/01 03:31:18;;;;;;;37.40;31.40;;;3.00;1.00;;;;;;4950667;28;20226;-82
2021/01/01 03:33:45;;;;;;;40.00;33.75;;;3.00;1.00;;;;;;4941960;28;20244;-84
2021/01/01 03:36:12;;;;;;;38.85;30.85;;;3.00;1.00;;;;;;4957639;28;20249;-85
2021/01/01 03:38:38;;;;;;;42.42;31.58;;;2.90;1.00;;;;;;4938305;28;20250;-84
2021/01/01 03:41:09;;;;;;;36.05;29.10;;;2.90;1.00;;;;;;4957061;28;20844;-83
2021/01/01 03:43:38;;;;;;;33.78;28.45;;;2.90;1.00;;;;;;4944112;28;20217;-82
2021/01/01 03:46:04;;;;;;;38.28;31.10;;;2.90;1.00;;;;;;4945730;28;20221;-83
2021/01/01 03:48:32;;;;;;;36.67;28.50;;;3.00;1.00;;;;;;4944023;28;20784;-83
2021/01/01 03:50:58;;;;;;;33.70;29.73;;;3.00;1.00;;;;;;4937924;28;20240;-84
2021/01/01 03:53:24;;;;;;;40.40;29.38;;;3.00;1.00;;;;;;4941367;28;20222;-82
2021/01/01 03:55:50;;;;;;;33.63;27.55;;;3.00;1.00;;;;;;4936575;28;20241;-82
2021/01/01 03:58:17;;;;;;;34.28;28.00;;;3.00;1.00;;;;;;4954327;28;20328;-85
2021/01/01 04:00:43;;;;;;;32.72;27.83;;;3.00;1.00;;;;;;4940822;28;20243;-83
2021/01/01 04:03:10;;;;;;;34.25;28.55;;;3.00;1.00;;;;;;4936918;28;20293;-83
2021/01/01 04:05:43;;;;;;;33.28;27.95;;;3.00;1.00;;;;;;4955886;28;20233;-81
2021/01/01 04:08:15;;;;;;;37.60;27.20;;;3.00;1.00;;;;;;4941417;28;20231;-85
2021/01/01 04:10:42;;;;;;;35.25;29.23;;;3.00;1.00;;;;;;4944969;28;20245;-82
2021/01/01 04:13:09;;;;;;;36.28;29.10;;;3.00;1.00;;;;;;4946629;28;20238;-82
2021/01/01 04:15:37;;;;;;;34.38;28.00;;;3.00;1.00;;;;;;4941724;28;20229;-83
2021/01/01 04:18:03;;;;;;;32.45;26.95;;;3.00;1.00;;;;;;4939153;28;20333;-83
2021/01/01 04:20:30;;;;;;;33.15;27.20;;;3.00;1.00;;;;;;4935451;28;20241;-83
2021/01/01 04:22:58;;;;;;;31.98;27.48;;;3.00;1.00;;;;;;4943970;28;20242;-84
2021/01/01 04:25:24;;;;;;;32.75;28.17;;;3.00;1.00;;;;;;4944754;28;20950;-81
2021/01/01 04:27:51;;;;;;;33.10;29.52;;;3.00;1.00;;;;;;4947747;28;20240;-81
2021/01/01 04:30:19;;;;;;;32.38;26.30;;;3.00;1.00;;;;;;4960563;28;20586;-81
2021/01/01 04:32:45;;;;;;;31.58;25.48;;;3.00;1.00;;;;;;4959913;28;20220;-81
2021/01/01 04:35:12;;;;;;;34.03;27.13;;;3.00;1.00;;;;;;4971525;28;20249;-82
2021/01/01 04:37:39;;;;;;;33.22;27.88;;;2.90;1.00;;;;;;4961965;28;20257;-81
2021/01/01 04:40:09;;;;;;;33.17;29.02;;;2.90;1.00;;;;;;4967881;28;20221;-80
2021/01/01 04:42:36;;;;;;;33.88;26.52;;;2.90;1.00;;;;;;4975516;28;20209;-82
2021/01/01 04:45:05;;;;;;;37.05;27.05;;;2.90;1.00;;;;;;4961603;28;20303;-84
2021/01/01 04:47:34;;;;;;;26.63;23.73;;;2.90;1.00;;;;;;4953072;28;20218;-82
2021/01/01 04:50:03;;;;;;;33.70;26.98;;;2.90;1.00;;;;;;4937119;28;20261;-83
2021/01/01 04:52:33;;;;;;;33.10;26.90;;;2.80;1.00;;;;;;4939031;28;20222;-82
2021/01/01 04:55:00;;;;;;;33.05;26.90;;;2.70;1.00;;;;;;4949359;28;20475;-81
2021/01/01 04:57:35;;;;;;;30.55;26.00;;;2.80;1.00;;;;;;4942074;28;20221;-82
2021/01/01 05:00:06;;;;;;;32.08;26.52;;;2.80;1.00;;;;;;4959468;28;20309;-81
2021/01/01 05:02:35;;;;;;;32.25;27.05;;;2.70;1.00;;;;;;4947643;28;20233;-83
2021/01/01 05:05:06;;;;;;;30.17;25.83;;;2.70;1.00;;;;;;4945684;28;20293;-83
2021/01/01 05:07:35;;;;;;;28.88;25.73;;;2.80;1.00;;;;;;4951070;28;20324;-82
2021/01/01 05:10:06;;;;;;;32.72;24.42;;;2.70;1.00;;;;;;4942495;28;20234;-82
2021/01/01 05:12:37;;;;;;;32.42;27.08;;;2.60;1.00;;;;;;4960735;28;20264;-82
2021/01/01 05:15:16;;;;;;;33.08;26.33;;;2.70;1.00;;;;;;4968850;28;20218;-81
2021/01/01 05:17:54;;;;;;;29.13;25.58;;;2.60;1.00;;;;;;4939254;28;20261;-83
2021/01/01 05:20:27;;;;;;;34.50;27.10;;;2.60;1.00;;;;;;4940838;28;20229;-83
2021/01/01 05:22:57;;;;;;;33.78;26.13;;;2.60;1.00;;;;;;4936991;28;20291;-83
2021/01/01 05:25:25;;;;;;;29.83;24.38;;;2.60;1.00;;;;;;4936409;28;20226;-81
2021/01/01 05:27:59;;;;;;;28.67;25.63;;;2.60;1.00;;;;;;4944040;28;20237;-83
2021/01/01 05:30:32;;;;;;;27.92;24.55;;;2.60;1.00;;;;;;4935918;28;20252;-83
2021/01/01 05:33:00;;;;;;;30.90;26.15;;;2.60;1.00;;;;;;4952648;28;20228;-83
2021/01/01 05:35:28;;;;;;;33.85;27.30;;;2.50;1.00;;;;;;4945090;28;20711;-83
2021/01/01 05:37:56;;;;;;;31.52;26.50;;;2.50;1.00;;;;;;4942838;28;20249;-82
2021/01/01 05:40:30;;;;;;;34.60;27.35;;;2.50;1.00;;;;;;4941717;28;20245;-82
2021/01/01 05:43:17;;;;;;;28.60;23.98;;;2.50;1.00;;;;;;4955634;28;20301;-82
2021/01/01 05:46:08;;;;;;;35.38;27.33;;;2.50;1.00;;;;;;4949704;28;20221;-82
2021/01/01 05:48:36;;;;;;;28.85;24.27;;;2.50;1.00;;;;;;4947778;28;20696;-83
2021/01/01 05:51:06;;;;;;;33.28;27.15;;;2.40;1.00;;;;;;4936283;28;20244;-83
2021/01/01 05:53:33;;;;;;;32.95;27.25;;;2.40;1.00;;;;;;4937783;28;20231;-83
2021/01/01 05:56:07;;;;;;;30.10;26.17;;;2.40;1.00;;;;;;4951448;28;20238;-83
2021/01/01 05:58:35;;;;;;;32.38;27.45;;;2.40;1.00;;;;;;4947063;28;20250;-82
2021/01/01 06:01:03;;;;;;;33.17;26.60;;;2.40;1.00;;;;;;4937677;28;20264;-84
2021/01/01 06:03:33;;;;;;;31.88;26.92;;;2.40;1.00;;;;;;4940643;28;20245;-82
2021/01/01 06:06:04;;;;;;;34.63;26.90;;;2.40;1.00;;;;;;4942309;28;20309;-84
2021/01/01 06:08:31;;;;;;;33.92;26.50;;;2.40;1.00;;;;;;4958803;28;20281;-84
2021/01/01 06:11:00;;;;;;;34.38;26.42;;;2.40;1.00;;;;;;4955362;28;20234;-80
2021/01/01 06:13:31;;;;;;;31.05;26.95;;;2.40;1.00;;;;;;4973521;28;20209;-85
2021/01/01 06:16:01;;;;;;;35.45;26.75;;;2.40;1.00;;;;;;4946605;28;20726;-83
2021/01/01 06:18:31;;;;;;;37.50;27.00;;;2.40;1.00;;;;;;4935341;28;20236;-82
2021/01/01 06:21:00;;;;;;;31.90;27.10;;;2.40;1.00;;;;;;4946349;28;20324;-82
2021/01/01 06:23:35;;;;;;;32.72;26.23;;;2.40;1.00;;;;;;4936295;28;20261;-83
2021/01/01 06:26:06;;;;;;;32.50;26.42;;;2.50;1.00;;;;;;4941487;28;20213;-82
2021/01/01 06:28:36;;;;;;;33.90;27.88;;;2.50;1.00;;;;;;4948554;28;20241;-83
2021/01/01 06:31:05;;;;;;;31.95;25.70;;;2.50;1.00;;;;;;4938842;28;20240;-83
2021/01/01 06:33:33;;;;;;;33.63;27.15;;;2.40;1.00;;;;;;4938212;28;20292;-83
2021/01/01 06:36:00;;;;;;;39.05;31.30;;;2.40;1.00;;;;;;4943394;28;20232;-83
2021/01/01 06:38:38;;;;;;;32.60;28.08;;;2.30;1.00;;;;;;4938337;28;20248;-83
2021/01/01 06:41:14;;;;;;;37.83;28.90;;;2.20;1.00;;;;;;4938207;28;20645;-84
2021/01/01 06:43:56;;;;;;;37.60;29.30;;;2.20;1.00;;;;;;4930657;28;20233;-83
2021/01/01 06:46:52;;;;;;;36.67;29.25;;;2.10;1.00;;;;;;4938190;28;21033;-81
2021/01/01 06:49:31;;;;;;;37.75;30.52;;;2.10;1.00;;;;;;4954647;28;20227;-82
2021/01/01 06:52:16;;;;;;;41.10;32.03;;;2.10;1.00;;;;;;4958177;28;20248;-84
2021/01/01 06:55:01;;;;;;;35.22;30.27;;;2.10;1.00;;;;;;4939231;28;20221;-83
2021/01/01 06:57:29;;;;;;;36.58;30.48;;;2.10;1.00;;;;;;4936331;28;20244;-83
2021/01/01 06:59:59;;;;;;;42.60;33.38;;;2.10;1.00;;;;;;4933136;28;20707;-83
2021/01/01 07:02:39;;;;;;;47.05;35.47;;;2.10;1.00;;;;;;4956773;28;20237;-83
2021/01/01 07:05:07;;;;;;;39.83;32.17;;;2.00;1.00;;;;;;4938553;28;20684;-83
2021/01/01 07:07:41;;;;;;;44.83;36.22;;;2.10;1.00;;;;;;4941640;28;20228;-83
2021/01/01 07:10:17;;;;;;;36.55;30.67;;;2.10;1.00;;;;;;4952398;28;20278;-83
2021/01/01 07:13:15;;;;;;;37.72;29.60;;;2.00;1.00;;;;;;4940030;28;20224;-85
2021/01/01 07:15:41;;;;;;;39.35;31.25;;;2.00;1.00;;;;;;4952521;28;20263;-84
2021/01/01 07:18:11;;;;;;;40.95;31.45;;;2.00;1.00;;;;;;4934755;28;21569;-85
2021/01/01 07:20:41;;;;;;;36.13;29.83;;;2.00;1.00;;;;;;4958706;28;20238;-83
2021/01/01 07:23:07;;;;;;;41.53;32.55;;;1.90;1.00;;;;;;4946758;28;20260;-83
2021/01/01 07:25:41;;;;;;;40.63;31.25;;;1.90;1.00;;;;;;4931847;28;20234;-81
2021/01/01 07:28:10;;;;;;;44.15;34.92;;;1.80;1.00;;;;;;4941936;28;20256;-83
2021/01/01 07:30:37;;;;;;;41.55;33.17;;;1.80;1.00;;;;;;4937172;28;20284;-85
2021/01/01 07:33:04;;;;;;;46.47;32.65;;;1.80;1.00;;;;;;4932543;28;20261;-85
2021/01/01 07:35:31;;;;;;;40.78;31.23;;;1.90;1.00;;;;;;4933761;28;20248;-83
2021/01/01 07:37:59;;;;;;;58.17;48.08;;;1.90;1.00;;;;;;4960118;28;20263;-83
2021/01/01 07:40:25;;;;;;;37.80;31.02;;;2.00;1.00;;;;;;4939460;28;21128;-83
2021/01/01 07:42:54;;;;;;;42.97;32.33;;;2.00;1.00;;;;;;4938883;28;20230;-83
2021/01/01 07:45:21;;;;;;;44.13;32.50;;;1.90;1.00;;;;;;4932366;28;20218;-83
2021/01/01 07:47:49;;;;;;;44.55;33.45;;;1.90;1.00;;;;;;4938291;28;20293;-83
2021/01/01 07:50:19;;;;;;;39.40;32.13;;;2.00;1.00;;;;;;4952568;28;20232;-83
2021/01/01 07:53:01;;;;;;;38.17;30.58;;;2.00;1.00;;;;;;4956987;28;20228;-83
2021/01/01 07:55:28;;;;;;;43.75;37.08;;;2.00;1.00;;;;;;4955141;28;20837;-83
2021/01/01 07:58:00;;;;;;;45.72;34.30;;;2.10;1.00;;;;;;4948596;28;20373;-83
2021/01/01 08:00:29;;;;;;;42.83;33.17;;;2.10;1.00;;;;;;4955717;28;20252;-82
2021/01/01 08:02:56;;;;;;;41.30;34.88;;;2.10;1.00;;;;;;4974252;28;20286;-84
2021/01/01 08:05:23;;;;;;;40.03;31.20;;;2.10;1.00;;;;;;4965258;28;20355;-83
2021/01/01 08:07:49;;;;;;;42.33;32.50;;;2.20;1.00;;;;;;4957057;28;20252;-83
2021/01/01 08:10:38;;;;;;;43.97;32.95;;;2.20;1.00;;;;;;4962768;28;20214;-83
2021/01/01 08:15:56;;;;;;;36.88;31.70;;;2.20;1.00;;;;;;4953813;28;20250;-82
2021/01/01 08:18:24;;;;;;;40.97;32.90;;;2.20;1.00;;;;;;4972788;28;20297;-83
2021/01/01 08:20:57;;;;;;;44.40;34.05;;;2.20;1.00;;;;;;4953898;28;20256;-82
2021/01/01 08:23:25;;;;;;;39.60;32.15;;;2.20;1.00;;;;;;4957396;28;20233;-82
2021/01/01 08:26:19;;;;;;;41.88;33.85;;;2.20;1.00;;;;;;4964250;28;20201;-84
2021/01/01 08:28:52;;;;;;;44.05;33.28;;;2.10;1.00;;;;;;4964448;28;20293;-83
2021/01/01 08:31:21;;;;;;;42.63;32.75;;;2.20;1.00;;;;;;4943814;28;20229;-83
2021/01/01 08:33:53;;;;;;;41.38;33.80;;;2.30;1.00;;;;;;4948082;28;20233;-84
2021/01/01 08:36:31;;;;;;;45.08;33.78;;;2.30;1.00;;;;;;4947411;28;20353;-83
2021/01/01 08:39:09;;;;;;;40.20;34.13;;;2.40;1.00;;;;;;4948130;28;21025;-82
2021/01/01 08:41:43;;;;;;;41.88;32.92;;;2.40;1.00;;;;;;4948813;28;20233;-80
2021/01/01 08:44:11;;;;;;;39.25;31.92;;;2.40;1.00;;;;;;4960265;28;20216;-82
2021/01/01 08:46:38;;;;;;;44.17;33.17;;;2.40;1.00;;;;;;4973574;28;20220;-81
2021/01/01 08:49:17;;;;;;;38.83;32.00;;;2.50;1.00;;;;;;4948574;28;20240;-85
2021/01/01 08:51:44;;;;;;;42.08;34.03;;;2.50;1.00;;;;;;4939649;28;20243;-83
2021/01/01 08:54:21;;;;;;;42.08;32.92;;;2.60;1.00;;;;;;4944956;28;20221;-82
2021/01/01 08:56:56;;;;;;;42.40;32.42;;;2.60;1.00;;;;;;4950997;28;20241;-80
2021/01/01 08:59:25;;;;;;;41.85;33.83;;;2.60;1.00;;;;;;4958893;28;20288;-81
2021/01/01 09:01:52;;;;;;;45.78;33.97;;;2.60;1.00;;;;;;4961481;28;20274;-82
2021/01/01 09:04:25;;;;;;;43.28;31.60;;;2.60;1.00;;;;;;4956502;28;20258;-84
2021/01/01 09:06:56;;;;;;;40.88;32.60;;;2.70;1.00;;;;;;4957338;28;20310;-83
2021/01/01 09:09:28;;;;;;;42.78;33.40;;;2.60;1.00;;;;;;4956996;28;20249;-82
2021/01/01 09:12:22;;;;;;;39.28;32.63;;;2.70;1.00;;;;;;4939545;28;20323;-82
2021/01/01 09:14:51;;;;;;;38.95;32.90;;;2.60;1.00;;;;;;4936157;28;20232;-83
2021/01/01 09:17:22;;;;;;;42.67;32.17;;;2.70;1.00;;;;;;4940172;28;20222;-83
2021/01/01 09:19:59;;;;;;;46.25;34.58;;;2.70;1.00;;;;;;4953116;28;20249;-81
2021/01/01 09:22:25;;;;;;;45.05;36.05;;;2.80;1.00;;;;;;4938510;28;20221;-81
2021/01/01 09:24:52;;;;;;;45.78;34.58;;;2.80;1.00;;;;;;4943918;28;20226;-83
2021/01/01 09:30:08;;;;;;;48.70;36.00;;;2.90;1.00;;;;;;4957726;28;20244;-86
2021/01/01 09:32:35;;;;;;;47.53;35.30;;;2.90;1.00;;;;;;4941003;28;20788;-85
2021/01/01 09:35:01;;;;;;;43.70;35.17;;;2.90;1.00;;;;;;4955912;28;20738;-81
2021/01/01 09:37:27;;;;;;;43.85;35.55;;;2.80;1.00;;;;;;4938537;28;20734;-82
2021/01/01 09:39:53;;;;;;;47.10;35.35;;;2.80;1.00;;;;;;4937169;28;20245;-83
2021/01/01 09:42:24;;;;;;;40.95;34.33;;;2.80;1.00;;;;;;4935353;28;20293;-84
2021/01/01 09:44:51;;;;;;;41.00;32.90;;;2.90;1.00;;;;;;4939649;28;20226;-85
2021/01/01 09:47:17;;;;;;;46.13;35.28;;;2.90;1.00;;;;;;4939926;28;20217;-80
2021/01/01 09:49:43;;;;;;;41.60;33.60;;;3.00;1.00;;;;;;4942523;28;20424;-84
2021/01/01 09:52:10;;;;;;;44.95;35.17;;;3.10;1.00;;;;;;4954395;28;20222;-81
2021/01/01 09:54:36;;;;;;;50.50;37.13;;;3.10;1.00;;;;;;4957399;28;20234;-81
2021/01/01 09:57:03;;;;;;;40.40;32.13;;;3.20;1.00;;;;;;4962507;28;20228;-84
2021/01/01 09:59:30;;;;;;;50.88;34.33;;;3.30;1.00;;;;;;4953597;28;20231;-83
2021/01/01 10:01:59;;;;;;;46.40;35.63;;;3.40;1.00;;;;;;4974003;28;20225;-86
2021/01/01 10:08:04;;;;;;;45.05;31.48;;;3.40;1.00;;;;;;4972133;23;20226;-86
2021/01/01 10:10:39;;;;;;;42.83;32.90;;;3.40;1.00;;;;;;4956892;28;20241;-88
2021/01/01 10:13:17;;;;;;;37.20;31.60;;;3.50;1.00;;;;;;4960330;28;20229;-88
2021/01/01 10:15:45;;;;;;;41.65;31.95;;;3.50;1.00;;;;;;4946062;28;20707;-86
2021/01/01 10:18:11;;;;;;;41.95;30.58;;;3.50;1.00;;;;;;4943898;29;20225;-83
2021/01/01 10:20:37;;;;;;;41.13;31.73;;;3.50;1.00;;;;;;4950123;28;20238;-83
2021/01/01 10:23:04;;;;;;;41.88;33.38;;;3.50;1.00;;;;;;4946233;28;20305;-82
2021/01/01 10:25:30;;;;;;;37.00;29.13;;;3.50;1.00;;;;;;4953527;28;20234;-79
2021/01/01 10:27:57;;;;;;;39.80;29.92;;;3.50;1.00;;;;;;4956404;28;20213;-82
2021/01/01 10:30:24;;;;;;;42.63;31.55;;;3.40;1.00;;;;;;4960006;28;20232;-82
2021/01/01 10:32:54;;;;;;;41.20;30.08;;;3.40;1.00;;;;;;4955284;28;20227;-86
2021/01/01 10:35:24;;;;;;;42.17;30.85;;;3.40;1.00;;;;;;4943618;28;20232;-82
2021/01/01 10:37:53;;;;;;;42.72;31.42;;;3.50;1.00;;;;;;4956635;28;20228;-82
2021/01/01 10:40:20;;;;;;;41.42;31.10;;;3.60;1.00;;;;;;4937983;28;20225;-84
2021/01/01 10:42:47;;;;;;;36.80;29.02;;;3.60;1.00;;;;;;4940855;28;20257;-86
2021/01/01 10:45:14;;;;;;;37.47;30.45;;;3.60;1.00;;;;;;4936298;28;20289;-84
2021/01/01 10:47:40;;;;;;;38.63;29.63;;;3.60;1.00;;;;;;4938613;28;20281;-85
2021/01/01 10:50:09;;;;;;;42.35;31.40;;;3.60;1.00;;;;;;4935043;28;20241;-84
2021/01/01 10:52:35;;;;;;;41.22;30.23;;;3.70;1.00;;;;;;4941353;29;20221;-84
2021/01/01 10:55:02;;;;;;;38.83;28.98;;;3.70;1.00;;;;;;4952942;29;20234;-82
2021/01/01 10:57:28;;;;;;;40.88;29.50;;;3.70;1.00;;;;;;4946209;28;20323;-83
2021/01/01 10:59:55;;;;;;;41.55;30.75;;;3.70;1.00;;;;;;4953491;28;20248;-84
2021/01/01 11:02:25;;;;;;;41.40;31.15;;;3.80;1.00;;;;;;4946889;28;20226;-85
2021/01/01 11:04:55;;;;;;;38.33;29.08;;;3.80;1.00;;;;;;4942117;28;20236;-88
2021/01/01 11:07:22;;;;;;;41.03;30.08;;;3.90;1.00;;;;;;4938268;28;20237;-83
2021/01/01 11:09:48;;;;;;;43.10;32.03;;;4.00;1.00;;;;;;4950492;28;20221;-84
2021/01/01 11:12:15;;;;;;;46.08;34.33;;;4.00;1.00;;;;;;4956110;28;20221;-84
2021/01/01 11:15:05;;;;;;;40.05;29.55;;;4.00;1.00;;;;;;4941836;28;20265;-85
2021/01/01 12:24:46;;;;;;;33.70;25.52;;;4.10;1.00;;;;;;4938365;28;20955;-84
2021/01/01 12:27:14;;;;;;;31.80;25.65;;;4.00;1.00;;;;;;4941276;28;20230;-87
2021/01/01 12:29:42;;;;;;;29.65;24.40;;;4.00;1.00;;;;;;4936012;28;20234;-85
2021/01/01 12:32:09;;;;;;;34.22;26.15;;;4.00;1.00;;;;;;4938514;29;21150;-85
2021/01/01 12:34:36;;;;;;;33.08;25.60;;;4.00;1.00;;;;;;4940890;28;20411;-86
2021/01/01 12:37:03;;;;;;;34.60;24.77;;;4.00;1.00;;;;;;4940061;28;20222;-84
2021/01/01 12:39:30;;;;;;;31.80;24.27;;;4.00;1.00;;;;;;4943204;29;20256;-85
2021/01/01 12:41:57;;;;;;;28.50;23.23;;;4.00;1.00;;;;;;4954537;28;20249;-85
2021/01/01 12:44:24;;;;;;;30.27;23.42;;;4.10;1.00;;;;;;4957391;28;20231;-86
2021/01/01 12:46:52;;;;;;;34.13;25.52;;;4.00;1.00;;;;;;5061889;23;20341;-86
2021/01/01 12:49:19;;;;;;;39.63;31.67;;;4.00;1.00;;;;;;4952831;28;20297;-83
2021/01/01 12:51:46;;;;;;;27.92;22.95;;;4.00;1.00;;;;;;4949549;28;20233;-84
2021/01/01 12:54:12;;;;;;;32.88;24.10;;;4.00;1.00;;;;;;4948695;28;20784;-82
2021/01/01 12:56:41;;;;;;;28.42;21.77;;;3.90;1.00;;;;;;4951026;28;20234;-81
2021/01/01 12:59:09;;;;;;;31.92;23.35;;;3.80;1.00;;;;;;4947580;28;20241;-85
2021/01/01 13:01:37;;;;;;;31.48;23.33;;;3.80;1.00;;;;;;4956376;28;20241;-85
2021/01/01 13:04:05;;;;;;;30.80;23.02;;;3.70;1.00;;;;;;4956875;28;20213;-85
2021/01/01 13:09:58;;;;;;;26.92;20.33;;;3.70;1.00;;;;;;4965548;28;20226;-82
2021/01/01 13:12:25;;;;;;;29.52;21.65;;;3.60;1.00;;;;;;4950718;28;20249;-82
2021/01/01 13:14:52;;;;;;;31.30;22.83;;;3.60;1.00;;;;;;4950158;28;20218;-81
2021/01/01 13:17:18;;;;;;;30.88;23.17;;;3.60;1.00;;;;;;4948523;28;20233;-82
2021/01/01 13:19:47;;;;;;;35.35;23.38;;;3.70;1.00;;;;;;4947722;28;20233;-82
2021/01/01 13:22:14;;;;;;;26.38;22.25;;;3.80;1.00;;;;;;4948364;28;20230;-84
2021/01/01 13:24:40;;;;;;;27.63;20.30;;;3.80;1.00;;;;;;4950378;28;20217;-82
2021/01/01 13:27:10;;;;;;;26.08;18.52;;;3.80;1.00;;;;;;4947338;28;20249;-83
2021/01/01 13:29:36;;;;;;;27.02;19.42;;;3.90;1.00;;;;;;4946612;28;20241;-82
2021/01/01 13:32:03;;;;;;;25.13;16.55;;;3.80;1.00;;;;;;4949051;28;20289;-82
2021/01/01 13:34:33;;;;;;;21.90;17.35;;;3.90;1.00;;;;;;4952095;28;20217;-82
2021/01/01 13:37:01;;;;;;;21.33;17.15;;;3.90;1.00;;;;;;4953813;28;20235;-82
2021/01/01 13:39:31;;;;;;;24.98;18.20;;;3.90;1.00;;;;;;4954870;28;20225;-82
2021/01/01 13:41:58;;;;;;;20.83;16.67;;;4.00;1.00;;;;;;4954918;28;20522;-82
2021/01/01 13:44:28;;;;;;;21.60;17.80;;;4.00;1.00;;;;;;4958430;28;20238;-82
2021/01/01 13:46:54;;;;;;;24.95;18.27;;;4.00;1.00;;;;;;4960272;28;20256;-82
2021/01/01 13:49:24;;;;;;;27.13;18.13;;;4.00;1.00;;;;;;4950272;28;20222;-81
2021/01/01 13:51:51;;;;;;;21.65;18.10;;;4.00;1.00;;;;;;4952828;28;20240;-81
2021/01/01 13:54:30;;;;;;;23.08;17.60;;;4.00;1.00;;;;;;4948300;28;20342;-82
2021/01/01 13:57:00;;;;;;;24.90;17.95;;;4.00;1.00;;;;;;4944095;29;21047;-85
2021/01/01 13:59:30;;;;;;;20.55;17.05;;;4.00;1.00;;;;;;4941094;28;20762;-83
2021/01/01 14:01:56;;;;;;;25.50;18.95;;;4.00;1.00;;;;;;4942652;28;20285;-85
2021/01/01 14:04:23;;;;;;;22.50;18.70;;;4.00;1.00;;;;;;4945267;28;20221;-83
2021/01/01 14:06:50;;;;;;;23.33;18.63;;;4.00;1.00;;;;;;4948327;28;20261;-82
2021/01/01 14:09:17;;;;;;;22.13;17.17;;;4.00;1.00;;;;;;4950022;28;20401;-83
2021/01/01 14:11:51;;;;;;;24.60;17.95;;;3.90;1.00;;;;;;4944552;29;20229;-81
2021/01/01 14:14:19;;;;;;;27.75;20.42;;;3.90;1.00;;;;;;4947271;28;20233;-81
2021/01/01 14:16:52;;;;;;;27.75;19.55;;;3.90;1.00;;;;;;4947897;28;20258;-82
2021/01/01 14:19:22;;;;;;;23.25;18.48;;;3.90;1.00;;;;;;4946823;28;20250;-81
2021/01/01 14:21:48;;;;;;;25.58;20.77;;;3.90;1.00;;;;;;4948339;28;20442;-81